createdAt,value
2022-11-24T00:00:55.271Z,997.50
2022-11-24T00:01:55.298Z,997.53
2022-11-24T00:02:55.380Z,997.51
2022-11-24T00:03:55.247Z,997.44
2022-11-24T00:04:55.227Z,997.47
2022-11-24T00:05:55.226Z,997.49
2022-11-24T00:06:55.215Z,997.50
2022-11-24T00:07:55.264Z,997.51
2022-11-24T00:08:55.184Z,997.51
2022-11-24T00:09:55.171Z,997.52
2022-11-24T00:10:55.166Z,997.56
2022-11-24T00:11:55.166Z,997.54
2022-11-24T00:12:55.143Z,997.54
2022-11-24T00:13:55.134Z,997.53
2022-11-24T00:14:55.124Z,997.53
2022-11-24T00:15:55.109Z,997.53
2022-11-24T00:16:55.166Z,997.56
2022-11-24T00:17:55.113Z,997.52
2022-11-24T00:18:55.080Z,997.50
2022-11-24T00:19:55.063Z,997.55
2022-11-24T00:20:55.056Z,997.59
2022-11-24T00:21:55.051Z,997.55
2022-11-24T00:22:55.038Z,997.55
2022-11-24T00:23:55.016Z,997.62
2022-11-24T00:24:55.011Z,997.64
2022-11-24T00:25:55.005Z,997.64
2022-11-24T00:26:54.992Z,997.65
2022-11-24T00:27:54.977Z,997.65
2022-11-24T00:28:54.960Z,997.64
2022-11-24T00:29:54.955Z,997.66
2022-11-24T00:30:54.973Z,997.67
2022-11-24T00:31:54.947Z,997.71
2022-11-24T00:32:54.919Z,997.72
2022-11-24T00:33:54.923Z,997.70
2022-11-24T00:34:54.895Z,997.71
2022-11-24T00:35:54.888Z,997.73
2022-11-24T00:36:54.908Z,997.71
2022-11-24T00:37:54.869Z,997.75
2022-11-24T00:38:54.863Z,997.75
2022-11-24T00:39:54.846Z,997.79
2022-11-24T00:40:54.835Z,997.79
2022-11-24T00:41:54.827Z,997.75
2022-11-24T00:42:54.816Z,997.75
2022-11-24T00:43:54.812Z,997.76
2022-11-24T00:44:54.784Z,997.71
2022-11-24T00:45:54.979Z,997.71
2022-11-24T00:46:54.872Z,997.76
2022-11-24T00:47:54.781Z,997.77
2022-11-24T00:48:54.745Z,997.77
2022-11-24T00:49:54.735Z,997.78
2022-11-24T00:50:54.719Z,997.80
2022-11-24T00:51:54.718Z,997.81
2022-11-24T00:52:54.710Z,997.83
2022-11-24T00:53:54.694Z,997.80
2022-11-24T00:54:54.674Z,997.79
2022-11-24T00:55:54.668Z,997.81
2022-11-24T00:56:54.657Z,997.83
2022-11-24T00:57:54.670Z,997.85
2022-11-24T00:58:54.632Z,997.79
2022-11-24T00:59:54.624Z,997.84
2022-11-24T01:00:54.612Z,997.81
2022-11-24T01:01:54.672Z,997.90
2022-11-24T01:02:54.679Z,997.88
2022-11-24T01:03:54.581Z,997.84
2022-11-24T01:04:54.572Z,997.85
2022-11-24T01:05:54.560Z,997.87
2022-11-24T01:06:54.546Z,997.88
2022-11-24T01:07:54.650Z,997.91
2022-11-24T01:08:54.533Z,997.89
2022-11-24T01:09:54.514Z,997.89
2022-11-24T01:10:54.501Z,997.91
2022-11-24T01:11:54.522Z,997.89
2022-11-24T01:12:54.487Z,997.93
2022-11-24T01:13:54.469Z,997.95
2022-11-24T01:14:54.454Z,997.91
2022-11-24T01:15:54.505Z,997.92
2022-11-24T01:16:54.437Z,997.92
2022-11-24T01:17:54.441Z,997.91
2022-11-24T01:18:54.410Z,997.89
2022-11-24T01:19:54.404Z,997.92
2022-11-24T01:20:54.388Z,997.95
2022-11-24T01:21:54.386Z,997.91
2022-11-24T01:22:54.374Z,997.98
2022-11-24T01:23:54.358Z,997.92
2022-11-24T01:24:54.345Z,997.97
2022-11-24T01:25:54.338Z,997.96
2022-11-24T01:26:54.326Z,997.98
2022-11-24T01:27:54.327Z,997.95
2022-11-24T01:28:54.301Z,997.97
2022-11-24T01:29:54.295Z,997.98
2022-11-24T01:30:54.311Z,998.01
2022-11-24T01:31:54.271Z,998.02
2022-11-24T01:32:54.269Z,998.00
2022-11-24T01:33:54.252Z,998.03
2022-11-24T01:34:54.237Z,998.02
2022-11-24T01:35:54.229Z,998.02
2022-11-24T01:36:54.211Z,998.04
2022-11-24T01:37:54.227Z,998.05
2022-11-24T01:38:54.192Z,998.07
2022-11-24T01:39:54.183Z,998.05
2022-11-24T01:40:54.171Z,998.10
2022-11-24T01:41:54.164Z,998.11
2022-11-24T01:42:54.150Z,998.06
2022-11-24T01:43:54.153Z,998.09
2022-11-24T01:44:54.122Z,998.08
2022-11-24T01:45:54.184Z,998.12
2022-11-24T01:46:54.100Z,998.09
2022-11-24T01:47:54.092Z,998.15
2022-11-24T01:48:54.095Z,998.13
2022-11-24T01:49:54.076Z,998.13
2022-11-24T01:50:54.058Z,998.12
2022-11-24T01:51:54.051Z,998.19
2022-11-24T01:52:54.033Z,998.16
2022-11-24T01:53:54.038Z,998.19
2022-11-24T01:54:54.011Z,998.17
2022-11-24T01:55:54.017Z,998.23
2022-11-24T01:56:53.990Z,998.24
2022-11-24T01:57:53.983Z,998.23
2022-11-24T01:58:53.977Z,998.20
2022-11-24T01:59:53.961Z,998.22
2022-11-24T02:00:53.945Z,998.17
2022-11-24T02:01:53.989Z,998.21
2022-11-24T02:02:53.967Z,998.19
2022-11-24T02:03:53.930Z,998.21
2022-11-24T02:04:53.902Z,998.19
2022-11-24T02:05:53.896Z,998.20
2022-11-24T02:06:53.878Z,998.21
2022-11-24T02:07:53.966Z,998.25
2022-11-24T02:08:53.867Z,998.19
2022-11-24T02:09:53.851Z,998.22
2022-11-24T02:10:53.839Z,998.25
2022-11-24T02:11:53.831Z,998.24
2022-11-24T02:12:53.815Z,998.26
2022-11-24T02:13:53.816Z,998.20
2022-11-24T02:14:53.791Z,998.26
2022-11-24T02:15:53.794Z,998.33
2022-11-24T02:16:53.770Z,998.32
2022-11-24T02:17:53.761Z,998.36
2022-11-24T02:18:53.770Z,998.37
2022-11-24T02:19:53.741Z,998.35
2022-11-24T02:20:53.726Z,998.40
2022-11-24T02:21:53.734Z,998.40
2022-11-24T02:22:53.705Z,998.41
2022-11-24T02:23:53.707Z,998.42
2022-11-24T02:24:53.682Z,998.43
2022-11-24T02:25:53.674Z,998.45
2022-11-24T02:26:53.659Z,998.50
2022-11-24T02:27:54.284Z,998.47
2022-11-24T02:28:53.647Z,998.49
2022-11-24T02:29:53.633Z,998.47
2022-11-24T02:30:53.685Z,998.51
2022-11-24T02:31:53.615Z,998.51
2022-11-24T02:32:53.594Z,998.52
2022-11-24T02:33:53.602Z,998.52
2022-11-24T02:34:53.577Z,998.53
2022-11-24T02:35:53.568Z,998.55
2022-11-24T02:36:53.552Z,998.53
2022-11-24T02:37:53.553Z,998.52
2022-11-24T02:38:53.539Z,998.54
2022-11-24T02:39:53.522Z,998.53
2022-11-24T02:40:53.510Z,998.55
2022-11-24T02:41:53.500Z,998.55
2022-11-24T02:42:53.487Z,998.54
2022-11-24T02:43:53.494Z,998.51
2022-11-24T02:44:53.465Z,998.56
2022-11-24T02:45:53.530Z,998.58
2022-11-24T02:46:53.460Z,998.55
2022-11-24T02:47:53.437Z,998.54
2022-11-24T02:48:53.443Z,998.59
2022-11-24T02:49:53.411Z,998.56
2022-11-24T02:50:53.396Z,998.58
2022-11-24T02:51:53.388Z,998.58
2022-11-24T02:52:53.481Z,998.59
2022-11-24T02:53:53.384Z,998.66
2022-11-24T02:54:53.355Z,998.65
2022-11-24T02:55:53.354Z,998.66
2022-11-24T02:56:53.330Z,998.71
2022-11-24T02:57:53.324Z,998.71
2022-11-24T02:58:53.330Z,998.70
2022-11-24T02:59:53.308Z,998.72
2022-11-24T03:00:53.288Z,998.68
2022-11-24T03:01:53.365Z,998.68
2022-11-24T03:02:53.314Z,998.73
2022-11-24T03:03:53.266Z,998.73
2022-11-24T03:04:53.305Z,998.72
2022-11-24T03:05:53.243Z,998.75
2022-11-24T03:06:53.234Z,998.80
2022-11-24T03:07:53.316Z,998.81
2022-11-24T03:08:53.211Z,998.79
2022-11-24T03:09:53.185Z,998.85
2022-11-24T03:10:53.180Z,998.83
2022-11-24T03:11:53.186Z,998.84
2022-11-24T03:12:53.174Z,998.85
2022-11-24T03:13:53.160Z,998.80
2022-11-24T03:14:53.148Z,998.78
2022-11-24T03:15:53.156Z,998.80
2022-11-24T03:16:53.239Z,998.85
2022-11-24T03:17:53.100Z,998.85
2022-11-24T03:18:53.099Z,998.83
2022-11-24T03:19:53.090Z,998.84
2022-11-24T03:20:53.078Z,998.82
2022-11-24T03:21:53.068Z,998.90
2022-11-24T03:22:53.052Z,998.86
2022-11-24T03:23:53.036Z,998.84
2022-11-24T03:24:53.041Z,998.89
2022-11-24T03:25:53.013Z,998.88
2022-11-24T03:26:53.031Z,998.91
2022-11-24T03:27:52.993Z,998.93
2022-11-24T03:28:52.987Z,998.96
2022-11-24T03:29:52.985Z,998.92
2022-11-24T03:30:53.016Z,998.98
2022-11-24T03:31:53.039Z,998.98
2022-11-24T03:32:53.036Z,998.99
2022-11-24T03:33:52.927Z,998.97
2022-11-24T03:34:52.930Z,999.00
2022-11-24T03:35:52.915Z,999.01
2022-11-24T03:36:52.899Z,999.02
2022-11-24T03:37:52.885Z,999.03
2022-11-24T03:38:52.876Z,999.02
2022-11-24T03:39:52.878Z,999.01
2022-11-24T03:40:52.855Z,999.02
2022-11-24T03:41:52.867Z,999.08
2022-11-24T03:42:52.836Z,999.10
2022-11-24T03:43:52.817Z,999.08
2022-11-24T03:44:52.824Z,999.11
2022-11-24T03:45:52.796Z,999.08
2022-11-24T03:46:52.792Z,999.10
2022-11-24T03:47:52.774Z,999.11
2022-11-24T03:48:52.772Z,999.09
2022-11-24T03:49:52.763Z,999.14
2022-11-24T03:50:52.748Z,999.16
2022-11-24T03:51:52.731Z,999.15
2022-11-24T03:52:52.723Z,999.11
2022-11-24T03:53:52.713Z,999.18
2022-11-24T03:54:52.715Z,999.15
2022-11-24T03:55:52.686Z,999.13
2022-11-24T03:56:52.681Z,999.14
2022-11-24T03:57:52.669Z,999.17
2022-11-24T03:58:52.661Z,999.19
2022-11-24T03:59:52.653Z,999.19
2022-11-24T04:00:52.638Z,999.23
2022-11-24T04:01:52.673Z,999.25
2022-11-24T04:02:52.718Z,999.28
2022-11-24T04:03:52.599Z,999.30
2022-11-24T04:04:52.625Z,999.29
2022-11-24T04:05:52.576Z,999.26
2022-11-24T04:06:52.572Z,999.25
2022-11-24T04:07:52.639Z,999.28
2022-11-24T04:08:52.551Z,999.30
2022-11-24T04:09:52.536Z,999.32
2022-11-24T04:10:52.539Z,999.32
2022-11-24T04:11:52.511Z,999.34
2022-11-24T04:12:52.506Z,999.33
2022-11-24T04:13:52.490Z,999.34
2022-11-24T04:14:52.482Z,999.30
2022-11-24T04:15:52.556Z,999.29
2022-11-24T04:16:52.463Z,999.30
2022-11-24T04:17:52.449Z,999.29
2022-11-24T04:18:52.439Z,999.34
2022-11-24T04:19:52.424Z,999.30
2022-11-24T04:20:52.433Z,999.31
2022-11-24T04:21:52.402Z,999.31
2022-11-24T04:22:52.397Z,999.35
2022-11-24T04:23:52.382Z,999.33
2022-11-24T04:24:52.375Z,999.31
2022-11-24T04:25:52.369Z,999.31
2022-11-24T04:26:52.359Z,999.30
2022-11-24T04:27:52.336Z,999.33
2022-11-24T04:28:52.329Z,999.37
2022-11-24T04:29:52.316Z,999.37
2022-11-24T04:30:52.358Z,999.34
2022-11-24T04:31:52.328Z,999.35
2022-11-24T04:32:52.287Z,999.43
2022-11-24T04:33:52.273Z,999.40
2022-11-24T04:34:52.265Z,999.38
2022-11-24T04:35:52.260Z,999.39
2022-11-24T04:36:52.247Z,999.43
2022-11-24T04:37:52.229Z,999.37
2022-11-24T04:39:24.292Z,999.44
2022-11-24T04:39:52.258Z,999.47
2022-11-24T04:40:52.219Z,999.48
2022-11-24T04:41:52.192Z,999.47
2022-11-24T04:42:52.173Z,999.51
2022-11-24T04:43:52.169Z,999.53
2022-11-24T04:44:52.155Z,999.58
2022-11-24T04:45:52.155Z,999.58
2022-11-24T04:46:52.183Z,999.58
2022-11-24T04:47:52.188Z,999.57
2022-11-24T04:48:52.124Z,999.60
2022-11-24T04:49:52.101Z,999.63
2022-11-24T04:50:52.097Z,999.62
2022-11-24T04:51:52.082Z,999.60
2022-11-24T04:52:52.065Z,999.63
2022-11-24T04:53:52.059Z,999.63
2022-11-24T04:54:52.045Z,999.63
2022-11-24T04:55:52.049Z,999.64
2022-11-24T04:56:52.036Z,999.68
2022-11-24T04:57:52.023Z,999.65
2022-11-24T04:58:51.999Z,999.72
2022-11-24T04:59:51.992Z,999.74
2022-11-24T05:00:52.001Z,999.73
2022-11-24T05:01:52.078Z,999.75
2022-11-24T05:02:51.954Z,999.78
2022-11-24T05:03:52.010Z,999.79
2022-11-24T05:04:51.934Z,999.79
2022-11-24T05:05:51.938Z,999.78
2022-11-24T05:06:51.913Z,999.78
2022-11-24T05:07:52.022Z,999.80
2022-11-24T05:08:51.891Z,999.73
2022-11-24T05:09:59.416Z,999.74
2022-11-24T05:10:51.895Z,999.80
2022-11-24T05:11:51.861Z,999.82
2022-11-24T05:12:51.856Z,999.81
2022-11-24T05:13:51.840Z,999.84
2022-11-24T05:14:51.826Z,999.88
2022-11-24T05:15:51.961Z,999.89
2022-11-24T05:16:51.809Z,999.88
2022-11-24T05:17:51.795Z,999.89
2022-11-24T05:18:51.790Z,999.88
2022-11-24T05:19:51.776Z,999.92
2022-11-24T05:20:51.774Z,999.91
2022-11-24T05:21:51.752Z,999.95
2022-11-24T05:22:51.755Z,999.94
2022-11-24T05:23:51.735Z,999.94
2022-11-24T05:24:51.717Z,999.93
2022-11-24T05:25:51.722Z,999.94
2022-11-24T05:26:51.693Z,999.91
2022-11-24T05:27:51.687Z,999.92
2022-11-24T05:28:51.672Z,1000.03
2022-11-24T05:29:51.663Z,1000.03
2022-11-24T05:30:51.660Z,1000.05
2022-11-24T05:31:51.705Z,1000.06
2022-11-24T05:32:51.630Z,1000.10
2022-11-24T05:33:51.622Z,1000.12
2022-11-24T05:34:51.609Z,1000.15
2022-11-24T05:35:51.614Z,1000.13
2022-11-24T05:36:51.586Z,1000.14
2022-11-24T05:37:51.579Z,1000.16
2022-11-24T05:38:51.563Z,1000.14
2022-11-24T05:39:51.562Z,1000.20
2022-11-24T05:40:51.551Z,1000.13
2022-11-24T05:41:51.535Z,1000.15
2022-11-24T05:42:51.524Z,1000.21
2022-11-24T05:43:51.510Z,1000.19
2022-11-24T05:44:51.501Z,1000.20
2022-11-24T05:45:51.503Z,1000.25
2022-11-24T05:46:51.502Z,1000.23
2022-11-24T05:47:51.484Z,1000.20
2022-11-24T05:48:51.454Z,1000.19
2022-11-24T05:49:51.448Z,1000.24
2022-11-24T05:50:51.445Z,1000.19
2022-11-24T05:51:51.487Z,1000.19
2022-11-24T05:52:51.409Z,1000.23
2022-11-24T05:53:51.410Z,1000.21
2022-11-24T05:54:51.391Z,1000.21
2022-11-24T05:55:51.391Z,1000.23
2022-11-24T05:56:51.371Z,1000.30
2022-11-24T05:57:51.361Z,1000.27
2022-11-24T05:58:51.344Z,1000.32
2022-11-24T05:59:51.340Z,1000.28
2022-11-24T06:00:51.331Z,1000.30
2022-11-24T06:01:51.417Z,1000.32
2022-11-24T06:02:51.389Z,1000.39
2022-11-24T06:03:51.294Z,1000.40
2022-11-24T06:04:51.280Z,1000.43
2022-11-24T06:05:51.292Z,1000.41
2022-11-24T06:06:51.256Z,1000.43
2022-11-24T06:07:51.367Z,1000.45
2022-11-24T06:08:51.235Z,1000.45
2022-11-24T06:09:51.225Z,1000.46
2022-11-24T06:10:51.230Z,1000.45
2022-11-24T06:11:51.203Z,1000.47
2022-11-24T06:12:51.195Z,1000.51
2022-11-24T06:13:51.253Z,1000.51
2022-11-24T06:14:51.172Z,1000.49
2022-11-24T06:15:51.181Z,1000.51
2022-11-24T06:16:51.217Z,1000.55
2022-11-24T06:17:51.141Z,1000.53
2022-11-24T06:18:51.130Z,1000.59
2022-11-24T06:19:51.114Z,1000.60
2022-11-24T06:21:09.506Z,1000.62
2022-11-24T06:21:51.097Z,1000.63
2022-11-24T06:22:51.083Z,1000.64
2022-11-24T06:23:51.070Z,1000.69
2022-11-24T06:24:51.063Z,1000.68
2022-11-24T06:25:51.730Z,1000.70
2022-11-24T06:26:51.041Z,1000.63
2022-11-24T06:27:51.032Z,1000.69
2022-11-24T06:28:51.020Z,1000.70
2022-11-24T06:29:51.006Z,1000.69
2022-11-24T06:30:51.002Z,1000.73
2022-11-24T06:31:51.038Z,1000.76
2022-11-24T06:32:50.975Z,1000.76
2022-11-24T06:33:50.962Z,1000.79
2022-11-24T06:34:50.953Z,1000.79
2022-11-24T06:35:50.937Z,1000.83
2022-11-24T06:36:50.941Z,1000.81
2022-11-24T06:37:50.917Z,1000.82
2022-11-24T06:38:50.907Z,1000.92
2022-11-24T06:39:50.895Z,1000.91
2022-11-24T06:40:50.887Z,1000.87
2022-11-24T06:41:50.885Z,1000.96
2022-11-24T06:42:50.865Z,1000.93
2022-11-24T06:43:50.850Z,1000.91
2022-11-24T06:44:50.842Z,1000.95
2022-11-24T06:45:50.855Z,1000.92
2022-11-24T06:46:50.837Z,1000.93
2022-11-24T06:47:50.806Z,1000.93
2022-11-24T06:48:50.798Z,1000.93
2022-11-24T06:49:50.784Z,1000.93
2022-11-24T06:50:50.776Z,1000.91
2022-11-24T06:51:50.772Z,1000.97
2022-11-24T06:52:50.756Z,1000.98
2022-11-24T06:53:50.741Z,1001.03
2022-11-24T06:54:50.735Z,1001.03
2022-11-24T06:55:50.719Z,1001.04
2022-11-24T06:56:50.728Z,1001.10
2022-11-24T06:57:50.694Z,1001.09
2022-11-24T06:58:50.688Z,1001.11
2022-11-24T06:59:50.702Z,1001.11
2022-11-24T07:00:50.707Z,1001.13
2022-11-24T07:01:50.663Z,1001.13
2022-11-24T07:02:50.693Z,1001.13
2022-11-24T07:03:50.633Z,1001.19
2022-11-24T07:04:50.623Z,1001.19
2022-11-24T07:05:50.608Z,1001.18
2022-11-24T07:06:50.613Z,1001.14
2022-11-24T07:07:51.123Z,1001.16
2022-11-24T07:08:50.577Z,1001.13
2022-11-24T07:09:50.562Z,1001.19
2022-11-24T07:10:50.560Z,1001.21
2022-11-24T07:11:50.552Z,1001.19
2022-11-24T07:12:50.539Z,1001.19
2022-11-24T07:13:54.978Z,1001.16
2022-11-24T07:14:50.524Z,1001.21
2022-11-24T07:15:50.499Z,1001.21
2022-11-24T07:16:50.539Z,1001.24
2022-11-24T07:17:50.477Z,1001.24
2022-11-24T07:18:50.481Z,1001.26
2022-11-24T07:19:50.453Z,1001.32
2022-11-24T07:20:50.448Z,1001.26
2022-11-24T07:21:50.431Z,1001.29
2022-11-24T07:22:50.425Z,1001.30
2022-11-24T07:23:50.419Z,1001.32
2022-11-24T07:24:50.402Z,1001.34
2022-11-24T07:25:50.390Z,1001.32
2022-11-24T07:26:50.380Z,1001.36
2022-11-24T07:27:50.376Z,1001.37
2022-11-24T07:28:50.367Z,1001.39
2022-11-24T07:29:50.343Z,1001.34
2022-11-24T07:30:50.355Z,1001.31
2022-11-24T07:31:50.355Z,1001.28
2022-11-24T07:32:50.316Z,1001.35
2022-11-24T07:33:50.311Z,1001.42
2022-11-24T07:34:50.293Z,1001.41
2022-11-24T07:35:50.277Z,1001.50
2022-11-24T07:36:50.271Z,1001.52
2022-11-24T07:37:50.971Z,1001.48
2022-11-24T07:38:50.340Z,1001.39
2022-11-24T07:39:50.232Z,1001.43
2022-11-24T07:40:50.226Z,1001.40
2022-11-24T07:41:50.209Z,1001.40
2022-11-24T07:42:50.203Z,1001.39
2022-11-24T07:43:50.200Z,1001.42
2022-11-24T07:44:50.185Z,1001.44
2022-11-24T07:45:50.237Z,1001.50
2022-11-24T07:46:50.160Z,1001.53
2022-11-24T07:47:50.142Z,1001.56
2022-11-24T07:48:50.151Z,1001.54
2022-11-24T07:49:50.122Z,1001.57
2022-11-24T07:50:55.460Z,1001.62
2022-11-24T07:51:50.109Z,1001.62
2022-11-24T07:52:50.096Z,1001.70
2022-11-24T07:53:50.091Z,1001.65
2022-11-24T07:54:50.072Z,1001.70
2022-11-24T07:55:50.078Z,1001.69
2022-11-24T07:56:50.060Z,1001.77
2022-11-24T07:57:50.042Z,1001.79
2022-11-24T07:58:52.995Z,1001.84
2022-11-24T07:59:50.013Z,1001.83
2022-11-24T08:00:50.004Z,1001.83
2022-11-24T08:01:50.049Z,1001.84
2022-11-24T08:02:49.984Z,1001.84
2022-11-24T08:03:50.031Z,1001.84
2022-11-24T08:04:49.960Z,1001.87
2022-11-24T08:06:16.025Z,1001.90
2022-11-24T08:06:49.960Z,1001.91
2022-11-24T08:07:49.963Z,1002.00
2022-11-24T08:08:49.926Z,1001.93
2022-11-24T08:09:49.907Z,1001.98
2022-11-24T08:10:49.915Z,1001.96
2022-11-24T08:11:49.883Z,1001.95
2022-11-24T08:12:49.882Z,1002.01
2022-11-24T08:13:49.875Z,1001.94
2022-11-24T08:14:49.853Z,1001.92
2022-11-24T08:15:49.837Z,1001.97
2022-11-24T08:16:49.889Z,1001.97
2022-11-24T08:17:49.814Z,1001.92
2022-11-24T08:18:49.822Z,1001.93
2022-11-24T08:19:49.792Z,1001.92
2022-11-24T08:20:49.789Z,1001.97
2022-11-24T08:21:49.770Z,1001.96
2022-11-24T08:22:49.764Z,1001.94
2022-11-24T08:23:49.761Z,1001.94
2022-11-24T08:24:49.744Z,1001.96
2022-11-24T08:25:54.167Z,1001.95
2022-11-24T08:26:49.726Z,1001.98
2022-11-24T08:27:49.703Z,1002.01
2022-11-24T08:28:49.710Z,1002.04
2022-11-24T08:29:49.686Z,1002.07
2022-11-24T08:30:49.676Z,1002.10
2022-11-24T08:31:49.761Z,1002.07
2022-11-24T08:32:49.653Z,1002.04
2022-11-24T08:33:49.649Z,1002.08
2022-11-24T08:34:49.634Z,1002.13
2022-11-24T08:35:49.680Z,1002.10
2022-11-24T08:36:49.609Z,1002.13
2022-11-24T08:37:49.596Z,1002.15
2022-11-24T08:38:49.600Z,1002.18
2022-11-24T08:39:49.571Z,1002.22
2022-11-24T08:40:49.568Z,1002.17
2022-11-24T08:41:49.550Z,1002.19
2022-11-24T08:42:49.544Z,1002.17
2022-11-24T08:43:49.551Z,1002.21
2022-11-24T08:44:49.522Z,1002.22
2022-11-24T08:45:49.546Z,1002.23
2022-11-24T08:46:49.506Z,1002.24
2022-11-24T08:47:49.486Z,1002.27
2022-11-24T08:48:51.101Z,1002.28
2022-11-24T08:49:49.474Z,1002.34
2022-11-24T08:50:49.456Z,1002.34
2022-11-24T08:51:49.442Z,1002.35
2022-11-24T08:52:49.436Z,1002.36
2022-11-24T08:53:49.419Z,1002.37
2022-11-24T08:54:49.426Z,1002.39
2022-11-24T08:55:49.405Z,1002.40
2022-11-24T08:56:49.388Z,1002.41
2022-11-24T08:57:49.381Z,1002.41
2022-11-24T08:58:50.129Z,1002.46
2022-11-24T08:59:49.373Z,1002.49
2022-11-24T09:00:49.343Z,1002.50
2022-11-24T09:01:49.525Z,1002.49
2022-11-24T09:02:49.324Z,1002.52
2022-11-24T09:03:50.948Z,1002.55
2022-11-24T09:04:49.352Z,1002.54
2022-11-24T09:05:52.158Z,1002.50
2022-11-24T09:06:49.280Z,1002.55
2022-11-24T09:07:49.341Z,1002.59
2022-11-24T09:08:50.059Z,1002.59
2022-11-24T09:09:49.256Z,1002.59
2022-11-24T09:10:49.241Z,1002.55
2022-11-24T09:11:49.223Z,1002.58
2022-11-24T09:12:49.222Z,1002.55
2022-11-24T09:13:49.204Z,1002.63
2022-11-24T09:14:49.217Z,1002.59
2022-11-24T09:15:49.179Z,1002.60
2022-11-24T09:16:49.242Z,1002.64
2022-11-24T09:17:49.157Z,1002.71
2022-11-24T09:18:49.775Z,1002.73
2022-11-24T09:19:49.147Z,1002.76
2022-11-24T09:20:49.130Z,1002.80
2022-11-24T09:21:49.117Z,1002.79
2022-11-24T09:22:49.108Z,1002.82
2022-11-24T09:23:49.110Z,1002.85
2022-11-24T09:24:49.106Z,1002.88
2022-11-24T09:25:49.071Z,1002.88
2022-11-24T09:26:49.070Z,1002.91
2022-11-24T09:27:49.046Z,1002.90
2022-11-24T09:28:49.069Z,1002.93
2022-11-24T09:29:49.036Z,1002.90
2022-11-24T09:30:49.052Z,1002.95
2022-11-24T09:31:49.007Z,1002.98
2022-11-24T09:32:48.997Z,1003.01
2022-11-24T09:33:48.985Z,1003.01
2022-11-24T09:34:48.983Z,1003.02
2022-11-24T09:35:48.959Z,1003.07
2022-11-24T09:36:48.955Z,1003.00
2022-11-24T09:37:48.938Z,1003.00
2022-11-24T09:38:48.930Z,1002.99
2022-11-24T09:39:48.927Z,1003.08
2022-11-24T09:40:48.910Z,1003.05
2022-11-24T09:41:48.895Z,1003.07
2022-11-24T09:42:53.356Z,1003.09
2022-11-24T09:43:48.875Z,1003.09
2022-11-24T09:44:48.876Z,1003.12
2022-11-24T09:46:05.162Z,1003.14
2022-11-24T09:46:48.883Z,1003.13
2022-11-24T09:47:48.837Z,1003.18
2022-11-24T09:48:48.824Z,1003.20
2022-11-24T09:49:51.439Z,1003.22
2022-11-24T09:50:48.799Z,1003.21
2022-11-24T09:51:48.787Z,1003.22
2022-11-24T09:52:48.778Z,1003.21
2022-11-24T09:53:48.761Z,1003.24
2022-11-24T09:54:48.775Z,1003.22
2022-11-24T09:55:48.741Z,1003.33
2022-11-24T09:56:48.736Z,1003.31
2022-11-24T09:57:48.731Z,1003.32
2022-11-24T09:58:48.840Z,1003.29
2022-11-24T09:59:48.705Z,1003.36
2022-11-24T10:00:48.689Z,1003.37
2022-11-24T10:01:48.781Z,1003.41
2022-11-24T10:02:48.672Z,1003.46
2022-11-24T10:03:48.678Z,1003.43
2022-11-24T10:04:48.718Z,1003.51
2022-11-24T10:05:48.657Z,1003.52
2022-11-24T10:06:48.628Z,1003.53
2022-11-24T10:07:48.678Z,1003.50
2022-11-24T10:08:48.719Z,1003.53
2022-11-24T10:09:48.601Z,1003.54
2022-11-24T10:10:48.592Z,1003.53
2022-11-24T10:11:48.574Z,1003.59
2022-11-24T10:12:48.560Z,1003.62
2022-11-24T10:13:48.544Z,1003.53
2022-11-24T10:14:48.549Z,1003.58
2022-11-24T10:15:48.530Z,1003.59
2022-11-24T10:16:48.969Z,1003.53
2022-11-24T10:17:48.500Z,1003.63
2022-11-24T10:18:49.181Z,1003.60
2022-11-24T10:19:48.489Z,1003.60
2022-11-24T10:20:48.523Z,1003.61
2022-11-24T10:21:48.457Z,1003.66
2022-11-24T10:22:48.448Z,1003.67
2022-11-24T10:23:48.437Z,1003.67
2022-11-24T10:24:48.427Z,1003.63
2022-11-24T10:25:48.422Z,1003.67
2022-11-24T10:26:48.451Z,1003.66
2022-11-24T10:27:48.390Z,1003.67
2022-11-24T10:28:48.382Z,1003.67
2022-11-24T10:29:48.367Z,1003.69
2022-11-24T10:30:48.396Z,1003.71
2022-11-24T10:31:48.347Z,1003.70
2022-11-24T10:32:48.345Z,1003.72
2022-11-24T10:33:48.332Z,1003.69
2022-11-24T10:34:48.317Z,1003.64
2022-11-24T10:35:48.314Z,1003.70
2022-11-24T10:36:48.293Z,1003.69
2022-11-24T10:37:48.281Z,1003.78
2022-11-24T10:38:48.274Z,1003.76
2022-11-24T10:39:48.259Z,1003.76
2022-11-24T10:40:56.983Z,1003.73
2022-11-24T10:41:48.242Z,1003.71
2022-11-24T10:42:48.240Z,1003.75
2022-11-24T10:43:48.212Z,1003.71
2022-11-24T10:44:48.207Z,1003.76
2022-11-24T10:45:48.293Z,1003.77
2022-11-24T10:46:48.251Z,1003.75
2022-11-24T10:47:48.177Z,1003.77
2022-11-24T10:48:49.679Z,1003.76
2022-11-24T10:49:48.147Z,1003.78
2022-11-24T10:50:48.154Z,1003.75
2022-11-24T10:51:48.128Z,1003.81
2022-11-24T10:52:48.121Z,1003.85
2022-11-24T10:53:48.105Z,1003.80
2022-11-24T10:54:48.099Z,1003.86
2022-11-24T10:55:48.092Z,1003.80
2022-11-24T10:56:48.079Z,1003.83
2022-11-24T10:57:48.061Z,1003.84
2022-11-24T10:58:48.289Z,1003.87
2022-11-24T10:59:48.037Z,1003.88
2022-11-24T11:00:48.041Z,1003.93
2022-11-24T11:01:48.128Z,1003.91
2022-11-24T11:02:48.098Z,1003.94
2022-11-24T11:03:48.008Z,1003.98
2022-11-24T11:04:48.082Z,1003.96
2022-11-24T11:05:47.982Z,1004.00
2022-11-24T11:06:47.972Z,1003.96
2022-11-24T11:07:48.006Z,1004.00
2022-11-24T11:08:48.746Z,1004.04
2022-11-24T11:09:47.928Z,1004.03
2022-11-24T11:10:47.933Z,1004.05
2022-11-24T11:11:47.908Z,1004.06
2022-11-24T11:12:47.931Z,1004.09
2022-11-24T11:13:47.884Z,1004.11
2022-11-24T11:14:47.878Z,1004.10
2022-11-24T11:15:47.945Z,1004.08
2022-11-24T11:16:47.858Z,1004.12
2022-11-24T11:17:47.839Z,1004.11
2022-11-24T11:18:47.834Z,1004.14
2022-11-24T11:19:53.215Z,1004.16
2022-11-24T11:20:47.830Z,1004.14
2022-11-24T11:21:47.800Z,1004.14
2022-11-24T11:22:47.792Z,1004.17
2022-11-24T11:23:47.777Z,1004.18
2022-11-24T11:24:47.772Z,1004.16
2022-11-24T11:25:47.761Z,1004.13
2022-11-24T11:26:47.745Z,1004.15
2022-11-24T11:27:47.738Z,1004.21
2022-11-24T11:28:48.410Z,1004.26
2022-11-24T11:34:02.963Z,1004.29
2022-11-24T11:34:14.466Z,1004.33
2022-11-24T11:34:30.137Z,1004.39
2022-11-24T11:35:18.350Z,1004.32
2022-11-24T11:36:18.346Z,1004.40
2022-11-24T11:37:18.331Z,1004.42
2022-11-24T11:38:18.310Z,1004.39
2022-11-24T11:39:18.303Z,1004.36
2022-11-24T11:40:18.285Z,1004.35
2022-11-24T11:41:18.286Z,1004.31
2022-11-24T11:42:45.321Z,1004.35
2022-11-24T11:43:18.263Z,1004.34
2022-11-24T11:44:18.239Z,1004.35
2022-11-24T11:45:18.311Z,1004.34
2022-11-24T11:46:18.477Z,1004.30
2022-11-24T11:47:18.212Z,1004.39
2022-11-24T11:48:18.196Z,1004.39
2022-11-24T11:49:18.197Z,1004.34
2022-11-24T11:50:18.226Z,1004.35
2022-11-24T11:51:25.579Z,1004.35
2022-11-24T11:52:18.162Z,1004.39
2022-11-24T11:53:18.146Z,1004.31
2022-11-24T11:54:18.129Z,1004.31
2022-11-24T11:55:18.120Z,1004.28
2022-11-24T11:56:18.116Z,1004.35
2022-11-24T11:57:18.155Z,1004.38
2022-11-24T11:58:18.085Z,1004.35
2022-11-24T11:59:18.077Z,1004.36
2022-11-24T12:00:18.061Z,1004.37
2022-11-24T12:01:18.077Z,1004.36
2022-11-24T12:02:18.121Z,1004.35
2022-11-24T12:03:18.107Z,1004.39
2022-11-24T12:04:18.155Z,1004.38
2022-11-24T12:05:18.138Z,1004.38
2022-11-24T12:06:18.006Z,1004.34
2022-11-24T12:07:18.017Z,1004.38
2022-11-24T12:08:21.321Z,1004.38
2022-11-24T12:09:20.707Z,1004.41
2022-11-24T12:10:17.955Z,1004.44
2022-11-24T12:11:17.967Z,1004.43
2022-11-24T12:12:17.932Z,1004.45
2022-11-24T12:13:17.922Z,1004.44
2022-11-24T12:14:17.911Z,1004.49
2022-11-24T12:15:17.896Z,1004.46
2022-11-24T12:16:17.926Z,1004.48
2022-11-24T12:17:17.882Z,1004.48
2022-11-24T12:18:40.631Z,1004.59